Lawrence, KS (66044)

10:29 AM CDT on August 30, 2016 (GMT -0500)
University Place | | Change Station

Elev 912 ft 38.95 °N, 95.24 °W | Updated 26 seconds ago

Overcast
Overcast
78.7 °F
Feels Like 82 °F
N
1.0
Wind Variable Wind from SE

Today
High -- | Low -- °F
--% Chance of Precip.
Yesterday
High -- | Low -- °F
Precip. -- in
Pressure 30.14 in
Visibility 10.0 miles
Clouds Overcast 7500 ft
Heat Index 82 °F
Dew Point 72 °F
Humidity 81%
Rainfall 0.00 in
Snow Depth Not available.
6:48 AM 7:53 PM
Waning Crescent, 3% visible
METAR KLWC 301452Z AUTO 00000KT 10SM OVC075 23/22 A3016 RMK AO2 SLP207 T02330222 51007
Pressure 30.14 in
Visibility 10.0 miles
Clouds Overcast 7500 ft
Heat Index 82 °F
Dew Point 72 °F
Humidity 81%
Rainfall 0.00 in
Snow Depth Not available.
6:48 AM 7:53 PM
Waning Crescent, 3% visible
METAR KLWC 301452Z AUTO 00000KT 10SM OVC075 23/22 A3016 RMK AO2 SLP207 T02330222 51007

10-Day Weather Forecast

Almanac

Astronomy

Aug. 30, 2016 Rise Set
Actual Time
Civil Twilight
Nautical Twilight
Astronomical Twilight
Moon
Length of Visible Light
Length of Day
Tomorrow will be .
, % of the Moon is Illuminated

Today's Extremes

State Highs State Lows

Community

WunderPhotos

Upload Photos

1,935,855 photos uploaded!

WunderBlog® & News

Nearby

Air Quality

  Air Quality AQ Index Pollutant
Not available.

Snow Depth

Station Depth Elevation

Earthquake Activity

City Distance Mag. Time & Date
Minimum magnitude displayed is 2.5.

Coastal Water Temperatures

Place Temperature

Stations

Nearby Weather Stations

Station Location Temp. Windchill Dew Point Humidity Wind Precip. Elev Updated Type
                   

Watches & Warnings

There are currently no watches in effect.